East Butler, Pennsylvania
Current Conditions -  °F | °C
As of 4:15 AM on Saturday 22 Nov 2014 (Local Time) from KBTP Reporting Station
Clear Clear  
Wind Chill: -8°   Ceiling: Unl
Heat Index: -8°   Visibility: 10mi
Dew Point: -13°   Wind: 0mph
Humidity: 68%   Direction: NA
Pressure: 30.37"   Gusts: NA
Location:  40.88°N, 79.85°W
Report Text: KBTP 220915Z AUTO 00000KT 10SM CLR M08/M13 A3037 RMK AO1
Loading
Personal Weather Stations






























Interactive Weather Map New forecast layout! Learn more

10-Day Weather Forecast

Advertisements
Track Severe Weather on mobile